createdAt,value
2018-11-02T00:02:21.429Z,22.15
2018-11-02T00:04:49.993Z,23.47
2018-11-02T00:07:18.529Z,21.93
2018-11-02T00:09:47.090Z,20.67
2018-11-02T00:12:16.821Z,22.52
2018-11-02T00:14:45.761Z,23.50
2018-11-02T00:17:15.637Z,29.05
2018-11-02T00:19:44.130Z,21.00
2018-11-02T00:22:12.674Z,20.10
2018-11-02T00:24:41.186Z,23.70
2018-11-02T00:27:09.702Z,21.60
2018-11-02T00:38:17.450Z,24.75
2018-11-02T00:40:46.055Z,21.60
2018-11-02T00:48:11.801Z,22.17
2018-11-02T00:50:40.299Z,20.67
2018-11-02T00:53:08.776Z,22.03
2018-11-02T01:01:32.325Z,21.23
2018-11-02T01:04:00.868Z,24.73
2018-11-02T01:06:29.859Z,22.07
2018-11-02T01:08:58.879Z,21.43
2018-11-02T01:11:27.397Z,25.72
2018-11-02T01:13:55.939Z,27.77
2018-11-02T01:16:24.546Z,21.90
2018-11-02T01:18:53.137Z,24.87
2018-11-02T01:21:21.697Z,23.77
2018-11-02T01:23:56.742Z,25.37
2018-11-02T01:26:25.287Z,24.80
2018-11-02T01:28:53.900Z,26.30
2018-11-02T01:31:22.685Z,20.83
2018-11-02T01:33:52.657Z,27.13
2018-11-02T01:36:21.219Z,32.05
2018-11-02T01:38:50.973Z,25.50
2018-11-02T01:41:19.487Z,26.33
2018-11-02T01:43:48.019Z,23.73
2018-11-02T01:46:17.431Z,22.82
2018-11-02T01:48:45.930Z,27.83
2018-11-02T01:56:13.132Z,24.13
2018-11-02T01:58:41.655Z,29.53
2018-11-02T02:01:10.240Z,26.00
2018-11-02T02:03:38.794Z,27.37
2018-11-02T02:06:07.329Z,25.77
2018-11-02T02:08:35.975Z,27.50
2018-11-02T02:11:04.894Z,27.15
2018-11-02T02:13:34.224Z,29.07
2018-11-02T02:16:02.763Z,27.07
2018-11-02T02:18:31.923Z,23.80
2018-11-02T02:21:00.469Z,22.32
2018-11-02T02:23:29.059Z,24.40
2018-11-02T02:25:57.601Z,23.47
2018-11-02T02:28:26.089Z,22.93
2018-11-02T02:30:54.577Z,24.77
2018-11-02T02:33:23.126Z,23.77
2018-11-02T02:35:52.383Z,22.63
2018-11-02T02:38:20.887Z,23.62
2018-11-02T02:40:49.930Z,21.65
2018-11-02T02:43:18.472Z,24.95
2018-11-02T02:45:46.962Z,25.77
2018-11-02T02:53:12.780Z,25.23
2018-11-02T02:55:41.321Z,26.13
2018-11-02T02:58:09.854Z,23.60
2018-11-02T03:06:36.244Z,29.00
2018-11-02T03:09:06.393Z,23.70
2018-11-02T03:11:34.902Z,28.30
2018-11-02T03:14:03.486Z,35.08
2018-11-02T03:16:32.067Z,29.07
2018-11-02T03:19:00.612Z,28.63
2018-11-02T03:21:29.510Z,31.20
2018-11-02T03:23:58.100Z,35.00
2018-11-02T03:26:26.638Z,32.00
2018-11-02T03:28:55.190Z,30.00
2018-11-02T03:31:23.722Z,40.93
2018-11-02T03:33:52.648Z,49.70
2018-11-02T03:36:21.778Z,46.58
2018-11-02T03:38:50.269Z,45.37
2018-11-02T03:41:18.793Z,45.37
2018-11-02T03:43:47.629Z,40.90
2018-11-02T03:46:16.482Z,42.53
2018-11-02T03:48:45.166Z,51.33
2018-11-02T03:51:14.609Z,62.10
2018-11-02T03:53:43.209Z,69.03
2018-11-02T03:56:11.806Z,63.83
2018-11-02T03:58:40.372Z,77.37
2018-11-02T04:01:08.908Z,53.60
2018-11-02T04:09:23.511Z,35.20
2018-11-02T04:11:51.949Z,34.70
2018-11-02T04:14:20.475Z,37.53
2018-11-02T04:16:49.640Z,31.83
2018-11-02T04:19:18.142Z,29.93
2018-11-02T04:21:47.645Z,30.97
2018-11-02T04:24:18.302Z,33.05
2018-11-02T04:26:46.846Z,31.00
2018-11-02T04:34:13.816Z,29.83
2018-11-02T04:36:43.220Z,51.87
2018-11-02T04:39:12.966Z,33.17
2018-11-02T04:41:42.260Z,30.25
2018-11-02T04:44:11.485Z,34.80
2018-11-02T04:46:40.153Z,30.93
2018-11-02T04:49:09.172Z,33.97
2018-11-02T04:57:39.649Z,29.75
2018-11-02T05:00:09.801Z,28.00
2018-11-02T05:02:38.394Z,48.27
2018-11-02T05:05:07.002Z,37.33
2018-11-02T05:07:35.571Z,24.80
2018-11-02T05:10:04.307Z,33.53
2018-11-02T05:12:32.846Z,29.20
2018-11-02T05:15:01.381Z,25.97
2018-11-02T05:17:29.934Z,29.70
2018-11-02T05:19:58.418Z,35.68
2018-11-02T05:22:27.610Z,32.37
2018-11-02T05:24:56.127Z,38.13
2018-11-02T05:27:24.678Z,37.58
2018-11-02T05:29:53.263Z,39.33
2018-11-02T05:32:21.790Z,39.58
2018-11-02T05:34:50.368Z,42.27
2018-11-02T05:37:20.150Z,43.60
2018-11-02T05:39:49.730Z,41.87
2018-11-02T05:42:18.389Z,34.13
2018-11-02T05:44:47.313Z,34.10
2018-11-02T05:47:16.589Z,33.80
2018-11-02T05:49:45.546Z,33.00
2018-11-02T05:57:09.530Z,29.20
2018-11-02T05:59:38.030Z,26.97
2018-11-02T06:02:07.173Z,28.10
2018-11-02T06:04:35.767Z,52.30
2018-11-02T06:07:04.298Z,29.43
2018-11-02T06:09:32.818Z,28.53
2018-11-02T06:12:01.364Z,26.40
2018-11-02T06:14:31.598Z,31.83
2018-11-02T06:17:00.158Z,33.87
2018-11-02T06:19:29.494Z,28.40
2018-11-02T06:21:58.294Z,29.13
2018-11-02T06:24:26.880Z,28.27
2018-11-02T06:26:56.611Z,29.20
2018-11-02T06:29:25.426Z,32.20
2018-11-02T06:31:53.945Z,30.10
2018-11-02T06:34:22.482Z,26.60
2018-11-02T06:36:51.003Z,26.60
2018-11-02T06:39:20.211Z,27.73
2018-11-02T06:41:48.750Z,26.03
2018-11-02T06:44:18.366Z,34.18
2018-11-02T06:46:46.946Z,29.90
2018-11-02T06:49:17.023Z,33.00
2018-11-02T06:51:45.972Z,28.57
2018-11-02T06:59:12.085Z,36.40
2018-11-02T07:01:40.608Z,26.00
2018-11-02T07:04:09.187Z,36.00
2018-11-02T07:06:38.446Z,31.27
2018-11-02T07:09:09.384Z,28.93
2018-11-02T07:11:38.487Z,34.00
2018-11-02T07:14:07.586Z,31.87
2018-11-02T07:16:36.102Z,33.30
2018-11-02T07:19:04.576Z,32.60
2018-11-02T07:21:33.415Z,43.20
2018-11-02T07:24:01.935Z,36.03
2018-11-02T07:26:30.439Z,32.83
2018-11-02T07:28:59.310Z,33.63
2018-11-02T07:31:28.435Z,31.73
2018-11-02T07:33:56.978Z,37.60
2018-11-02T07:36:25.590Z,37.50
2018-11-02T07:38:54.131Z,38.53
2018-11-02T07:41:25.201Z,35.73
2018-11-02T07:43:53.886Z,46.10
2018-11-02T07:46:22.410Z,31.47
2018-11-02T07:48:50.942Z,32.57
2018-11-02T07:51:19.591Z,31.30
2018-11-02T07:53:48.051Z,27.47
2018-11-02T07:56:17.836Z,30.50
2018-11-02T07:58:46.627Z,35.20
2018-11-02T08:01:16.590Z,40.50
2018-11-02T08:03:45.369Z,45.27
2018-11-02T08:06:14.826Z,33.97
2018-11-02T08:08:43.361Z,35.53
2018-11-02T08:11:12.204Z,33.40
2018-11-02T08:13:40.817Z,36.10
2018-11-02T08:16:09.322Z,28.30
2018-11-02T08:18:37.842Z,32.80
2018-11-02T08:21:06.448Z,27.73
2018-11-02T08:23:35.445Z,25.47
2018-11-02T08:26:04.060Z,23.20
2018-11-02T08:28:32.650Z,25.87
2018-11-02T08:31:01.175Z,30.80
2018-11-02T08:33:29.755Z,33.23
2018-11-02T08:35:58.495Z,36.50
2018-11-02T08:38:27.607Z,22.40
2018-11-02T08:40:56.113Z,20.57
2018-11-02T08:43:25.451Z,29.42
2018-11-02T08:45:56.669Z,20.23
2018-11-02T08:48:25.222Z,19.43
2018-11-02T08:50:53.766Z,23.43
2018-11-02T08:53:22.550Z,22.20
2018-11-02T08:55:51.093Z,22.93
2018-11-02T08:58:19.783Z,23.30
2018-11-02T09:00:48.226Z,18.63
2018-11-02T09:03:17.479Z,22.40
2018-11-02T09:05:46.017Z,18.30
2018-11-02T09:08:15.617Z,31.80
2018-11-02T09:10:44.933Z,20.73
2018-11-02T09:13:13.555Z,20.23
2018-11-02T09:15:42.118Z,19.73
2018-11-02T09:18:11.022Z,18.67
2018-11-02T09:20:40.509Z,20.13
2018-11-02T09:23:08.993Z,18.03
2018-11-02T09:25:37.511Z,19.60
2018-11-02T09:28:06.271Z,19.63
2018-11-02T09:30:34.729Z,17.50
2018-11-02T09:33:03.272Z,21.87
2018-11-02T09:35:31.879Z,26.40
2018-11-02T09:38:00.443Z,20.90
2018-11-02T09:40:29.005Z,20.90
2018-11-02T09:42:57.893Z,21.87
2018-11-02T09:45:28.018Z,21.90
2018-11-02T09:47:56.538Z,23.03
2018-11-02T09:50:25.095Z,23.55
2018-11-02T09:52:53.572Z,22.50
2018-11-02T09:55:22.083Z,21.93
2018-11-02T09:57:50.783Z,23.30
2018-11-02T10:00:19.141Z,22.83
2018-11-02T10:02:47.666Z,23.17
2018-11-02T10:05:16.550Z,30.35
2018-11-02T10:07:45.110Z,21.63
2018-11-02T10:10:14.548Z,20.02
2018-11-02T10:12:43.169Z,21.67
2018-11-02T10:15:14.096Z,27.67
2018-11-02T10:17:42.670Z,29.47
2018-11-02T10:20:11.782Z,22.40
2018-11-02T10:22:40.372Z,20.77
2018-11-02T10:25:09.858Z,25.03
2018-11-02T10:36:17.590Z,25.08
2018-11-02T10:38:46.265Z,25.03
2018-11-02T10:41:19.825Z,27.85
2018-11-02T10:43:48.822Z,27.80
2018-11-02T10:46:18.824Z,24.37
2018-11-02T10:48:47.392Z,23.23
2018-11-02T10:51:16.716Z,25.17
2018-11-02T10:53:45.265Z,31.73
2018-11-02T10:56:14.871Z,25.33
2018-11-02T10:58:43.533Z,26.17
2018-11-02T11:01:17.460Z,22.53
2018-11-02T11:03:46.234Z,25.73
2018-11-02T11:11:15.252Z,27.90
2018-11-02T11:13:44.226Z,23.57
2018-11-02T11:16:12.659Z,27.75
2018-11-02T11:18:41.276Z,25.40
2018-11-02T11:21:09.927Z,25.13
2018-11-02T11:29:36.099Z,28.17
2018-11-02T11:32:05.118Z,26.87
2018-11-02T11:34:33.649Z,27.58
2018-11-02T11:37:02.196Z,27.00
2018-11-02T11:39:30.863Z,37.43
2018-11-02T11:41:59.434Z,31.30
2018-11-02T11:44:28.242Z,31.33
2018-11-02T11:46:57.197Z,25.37
2018-11-02T11:49:26.115Z,27.50
2018-11-02T11:51:54.859Z,32.57
2018-11-02T11:54:23.405Z,31.27
2018-11-02T11:56:52.692Z,28.70
2018-11-02T11:59:21.321Z,27.00
2018-11-02T12:01:49.911Z,30.70
2018-11-02T12:04:18.529Z,32.77
2018-11-02T12:06:47.256Z,32.47
2018-11-02T12:09:17.426Z,29.03
2018-11-02T12:11:46.117Z,33.10
2018-11-02T12:19:13.550Z,31.60
2018-11-02T12:21:42.095Z,30.57
2018-11-02T12:24:10.647Z,33.57
2018-11-02T12:26:39.506Z,34.60
2018-11-02T12:29:08.003Z,30.33
2018-11-02T12:31:36.576Z,32.67
2018-11-02T12:34:05.454Z,36.00
2018-11-02T12:36:33.949Z,31.70
2018-11-02T12:39:03.195Z,33.80
2018-11-02T12:41:31.818Z,31.83
2018-11-02T12:44:00.593Z,39.03
2018-11-02T12:46:36.030Z,33.37
2018-11-02T12:49:05.762Z,28.60
2018-11-02T12:51:34.058Z,29.45
2018-11-02T12:54:02.640Z,30.63
2018-11-02T12:56:31.175Z,30.07
2018-11-02T12:58:59.693Z,27.03
2018-11-02T13:01:28.234Z,30.70
2018-11-02T13:03:56.750Z,30.53
2018-11-02T13:06:25.278Z,29.87
2018-11-02T13:08:54.470Z,37.60
2018-11-02T13:11:23.193Z,39.55
2018-11-02T13:13:51.815Z,31.40
2018-11-02T13:16:20.354Z,33.30
2018-11-02T13:18:48.882Z,25.80
2018-11-02T13:21:17.413Z,25.72
2018-11-02T13:23:45.934Z,29.83
2018-11-02T13:31:15.633Z,23.43
2018-11-02T13:33:44.201Z,18.67
2018-11-02T13:36:13.846Z,27.60
2018-11-02T13:38:42.398Z,29.33
2018-11-02T13:41:10.958Z,27.60
2018-11-02T13:43:39.611Z,36.60
2018-11-02T13:46:08.015Z,33.67
2018-11-02T13:48:36.528Z,36.17
2018-11-02T13:51:06.071Z,33.90
2018-11-02T13:53:34.802Z,35.88
2018-11-02T13:56:03.767Z,31.43
2018-11-02T13:58:32.320Z,34.57
2018-11-02T14:01:00.911Z,31.50
2018-11-02T14:03:29.463Z,30.77
2018-11-02T14:05:58.429Z,32.60
2018-11-02T14:08:27.057Z,31.05
2018-11-02T14:10:55.697Z,35.33
2018-11-02T14:13:24.635Z,35.20
2018-11-02T14:15:53.510Z,32.33
2018-11-02T14:18:23.404Z,32.73
2018-11-02T14:20:53.338Z,38.13
2018-11-02T14:23:21.851Z,30.77
2018-11-02T14:25:50.376Z,40.83
2018-11-02T14:28:18.906Z,33.23
2018-11-02T14:42:19.217Z,35.43
2018-11-02T14:44:47.802Z,39.03
2018-11-02T14:47:17.441Z,31.00
2018-11-02T14:49:46.365Z,35.00
2018-11-02T14:57:16.437Z,33.20
2018-11-02T14:59:45.081Z,37.93
2018-11-02T15:02:13.675Z,44.20
2018-11-02T15:04:42.286Z,39.07
2018-11-02T15:07:10.862Z,41.80
2018-11-02T15:09:40.123Z,45.30
2018-11-02T15:12:09.039Z,47.47
2018-11-02T15:14:38.479Z,39.63
2018-11-02T15:17:08.901Z,39.70
2018-11-02T15:19:37.442Z,46.00
2018-11-02T15:22:06.413Z,45.40
2018-11-02T15:24:34.936Z,45.90
2018-11-02T15:27:03.549Z,43.60
2018-11-02T15:29:32.078Z,40.50
2018-11-02T15:32:00.592Z,43.87
2018-11-02T15:34:29.449Z,51.30
2018-11-02T15:36:57.946Z,46.53
2018-11-02T15:39:26.478Z,46.73
2018-11-02T15:41:55.089Z,38.87
2018-11-02T15:44:23.643Z,47.43
2018-11-02T15:46:52.174Z,47.40
2018-11-02T15:49:20.731Z,53.68
2018-11-02T15:51:50.120Z,49.83
2018-11-02T15:54:19.298Z,51.50
2018-11-02T15:56:48.338Z,48.70
2018-11-02T15:59:17.468Z,48.97
2018-11-02T16:01:46.018Z,46.57
2018-11-02T16:09:11.250Z,47.50
2018-11-02T16:11:39.794Z,50.87
2018-11-02T16:14:08.592Z,49.40
2018-11-02T16:16:37.726Z,61.93
2018-11-02T16:19:06.338Z,55.77
2018-11-02T16:21:35.186Z,63.67
2018-11-02T16:24:03.752Z,52.53
2018-11-02T16:26:32.258Z,50.90
2018-11-02T16:29:00.775Z,61.73
2018-11-02T16:31:29.361Z,59.07
2018-11-02T16:33:57.937Z,63.87
2018-11-02T16:36:26.425Z,59.57
2018-11-02T16:38:55.723Z,52.97
2018-11-02T16:41:24.237Z,61.20
2018-11-02T16:43:52.782Z,49.17
2018-11-02T16:46:22.336Z,50.08
2018-11-02T16:48:50.850Z,47.63
2018-11-02T16:51:20.849Z,47.25
2018-11-02T16:53:49.435Z,48.20
2018-11-02T16:56:18.624Z,39.60
2018-11-02T16:58:47.309Z,51.37
2018-11-02T17:01:16.622Z,51.58
2018-11-02T17:03:45.193Z,43.67
2018-11-02T17:06:15.922Z,46.63
2018-11-02T17:08:44.722Z,42.17
2018-11-02T17:11:13.278Z,41.23
2018-11-02T17:13:42.427Z,43.17
2018-11-02T17:16:11.164Z,45.03
2018-11-02T17:18:39.840Z,49.63
2018-11-02T17:21:08.499Z,53.30
2018-11-02T17:23:37.720Z,60.50
2018-11-02T17:26:06.958Z,56.23
2018-11-02T17:28:35.872Z,47.78
2018-11-02T17:31:05.652Z,46.57
2018-11-02T17:33:34.519Z,72.32
2018-11-02T17:36:05.386Z,48.77
2018-11-02T17:38:33.990Z,48.42
2018-11-02T17:41:02.514Z,48.83
2018-11-02T17:43:31.049Z,59.53
2018-11-02T17:46:00.906Z,43.53
2018-11-02T17:48:29.993Z,45.40
2018-11-02T17:50:58.484Z,47.67
2018-11-02T17:53:27.180Z,43.97
2018-11-02T17:55:55.659Z,57.53
2018-11-02T17:58:25.543Z,48.17
2018-11-02T18:00:54.085Z,53.00
2018-11-02T18:03:22.565Z,43.63
2018-11-02T18:05:51.093Z,50.83
2018-11-02T18:08:20.152Z,49.88
2018-11-02T18:10:48.701Z,50.73
2018-11-02T18:13:17.414Z,54.33
2018-11-02T18:15:45.961Z,55.47
2018-11-02T18:23:07.374Z,52.57
2018-11-02T18:25:35.966Z,52.27
2018-11-02T18:28:04.878Z,57.48
2018-11-02T18:30:34.221Z,46.60
2018-11-02T18:33:02.749Z,48.37
2018-11-02T18:35:31.324Z,47.53
2018-11-02T18:37:59.798Z,51.57
2018-11-02T18:40:28.382Z,47.30
2018-11-02T18:42:56.918Z,63.93
2018-11-02T18:45:25.487Z,50.57
2018-11-02T18:47:54.079Z,44.43
2018-11-02T18:50:23.094Z,48.67
2018-11-02T18:52:52.026Z,55.73
2018-11-02T18:55:20.958Z,55.78
2018-11-02T18:57:49.510Z,52.25
2018-11-02T19:00:19.162Z,54.15
2018-11-02T19:02:48.203Z,54.53
2018-11-02T19:05:18.692Z,59.46
2018-11-02T19:07:47.278Z,58.77
2018-11-02T19:10:16.538Z,53.74
2018-11-02T19:12:45.685Z,50.90
2018-11-02T19:15:17.919Z,53.95
2018-11-02T19:17:46.521Z,49.43
2018-11-02T19:20:17.044Z,62.10
2018-11-02T19:22:45.724Z,57.20
2018-11-02T19:25:16.827Z,51.23
2018-11-02T19:27:46.041Z,58.70
2018-11-02T19:35:12.661Z,67.07
2018-11-02T19:37:41.012Z,71.40
2018-11-02T19:40:11.739Z,67.25
2018-11-02T19:42:45.686Z,69.70
2018-11-02T19:45:15.604Z,64.58
2018-11-02T19:47:49.420Z,78.53
2018-11-02T19:50:19.439Z,70.10
2018-11-02T19:52:47.986Z,63.17
2018-11-02T19:55:18.709Z,64.00
2018-11-02T19:57:47.165Z,64.77
2018-11-02T20:00:17.144Z,61.77
2018-11-02T20:02:46.877Z,59.77
2018-11-02T20:05:17.832Z,63.25
2018-11-02T20:07:46.377Z,62.00
2018-11-02T20:20:08.222Z,57.83
2018-11-02T20:22:37.000Z,51.27
2018-11-02T20:25:06.467Z,54.03
2018-11-02T20:27:34.993Z,51.13
2018-11-02T20:30:03.678Z,57.15
2018-11-02T20:32:32.328Z,52.97
2018-11-02T20:35:01.465Z,55.73
2018-11-02T20:37:30.491Z,50.70
2018-11-02T20:39:59.205Z,49.20
2018-11-02T20:42:28.293Z,53.27
2018-11-02T20:44:57.104Z,60.03
2018-11-02T20:47:25.663Z,55.80
2018-11-02T20:49:54.274Z,52.60
2018-11-02T20:52:22.785Z,54.50
2018-11-02T20:54:51.496Z,51.07
2018-11-02T20:57:21.556Z,59.50
2018-11-02T20:59:51.470Z,52.57
2018-11-02T21:02:20.256Z,51.87
2018-11-02T21:04:51.403Z,51.87
2018-11-02T21:07:20.044Z,52.23
2018-11-02T21:09:48.893Z,50.10
2018-11-02T21:12:18.663Z,52.62
2018-11-02T21:14:47.274Z,50.97
2018-11-02T21:17:17.195Z,50.15
2018-11-02T21:19:45.827Z,53.07
2018-11-02T21:22:15.656Z,55.25
2018-11-02T21:24:44.239Z,57.27
2018-11-02T21:27:12.810Z,53.60
2018-11-02T21:41:12.428Z,62.17
2018-11-02T21:43:41.634Z,59.93
2018-11-02T21:46:10.166Z,56.97
2018-11-02T21:48:38.690Z,58.30
2018-11-02T21:51:07.258Z,55.77
2018-11-02T21:53:35.822Z,58.93
2018-11-02T21:56:04.339Z,61.87
2018-11-02T21:58:32.955Z,62.27
2018-11-02T22:01:01.398Z,60.37
2018-11-02T22:03:29.882Z,61.80
2018-11-02T22:06:00.166Z,61.30
2018-11-02T22:08:28.583Z,61.67
2018-11-02T22:10:57.094Z,68.37
2018-11-02T22:13:25.666Z,69.80
2018-11-02T22:15:55.210Z,68.70
2018-11-02T22:18:24.267Z,75.57
2018-11-02T22:20:52.852Z,72.93
2018-11-02T22:23:21.436Z,68.90
2018-11-02T22:25:49.967Z,70.67
2018-11-02T22:28:18.686Z,71.47
2018-11-02T22:30:47.199Z,73.97
2018-11-02T22:33:17.474Z,72.62
2018-11-02T22:35:46.011Z,67.00
2018-11-02T22:38:15.538Z,64.92
2018-11-02T22:40:44.052Z,71.43
2018-11-02T22:43:12.588Z,65.83
2018-11-02T22:45:41.107Z,72.57
2018-11-02T22:48:15.241Z,69.47
2018-11-02T22:50:43.790Z,64.73
2018-11-02T22:53:12.388Z,78.20
2018-11-02T22:55:40.970Z,75.43
2018-11-02T22:58:09.517Z,66.75
2018-11-02T23:00:43.394Z,69.43
2018-11-02T23:03:11.918Z,64.60
2018-11-02T23:05:40.498Z,66.77
2018-11-02T23:08:09.631Z,61.93
2018-11-02T23:10:38.182Z,65.07
2018-11-02T23:13:07.373Z,68.17
2018-11-02T23:15:35.909Z,63.37
2018-11-02T23:18:04.438Z,67.72
2018-11-02T23:20:32.939Z,63.80
2018-11-02T23:23:01.467Z,64.35
2018-11-02T23:25:29.990Z,67.10
2018-11-02T23:27:58.485Z,60.73
2018-11-02T23:30:27.642Z,61.08
2018-11-02T23:32:56.140Z,63.20
2018-11-02T23:35:24.655Z,62.43
2018-11-02T23:37:53.186Z,63.17
2018-11-02T23:40:21.715Z,61.80
2018-11-02T23:42:50.297Z,68.07
2018-11-02T23:45:18.866Z,62.48
2018-11-02T23:47:52.671Z,61.90
2018-11-02T23:50:21.662Z,58.02
2018-11-02T23:52:50.213Z,59.30
2018-11-02T23:55:18.751Z,57.80
2018-11-02T23:57:47.310Z,59.07
